sensor_id;sensor_type;location;lat;lon;timestamp;pressure;altitude;pressure_sealevel;temperature;humidity
5952;BME280;3001;42.622;23.194;2022-10-16T00:02:13;91891.75;;;11.45;84.32
5952;BME280;3001;42.622;23.194;2022-10-16T00:04:41;91894.00;;;11.38;85.16
5952;BME280;3001;42.622;23.194;2022-10-16T00:07:08;91895.63;;;11.34;85.42
5952;BME280;3001;42.622;23.194;2022-10-16T00:09:35;91899.66;;;11.40;84.01
5952;BME280;3001;42.622;23.194;2022-10-16T00:12:02;91895.91;;;11.33;84.15
5952;BME280;3001;42.622;23.194;2022-10-16T00:14:32;91910.56;;;11.42;83.81
5952;BME280;3001;42.622;23.194;2022-10-16T00:16:58;91911.72;;;11.50;84.01
5952;BME280;3001;42.622;23.194;2022-10-16T00:19:25;91901.31;;;11.36;84.58
5952;BME280;3001;42.622;23.194;2022-10-16T00:21:53;91907.06;;;11.33;85.05
5952;BME280;3001;42.622;23.194;2022-10-16T00:24:20;91909.41;;;11.08;85.77
5952;BME280;3001;42.622;23.194;2022-10-16T00:26:49;91907.91;;;11.02;86.66
5952;BME280;3001;42.622;23.194;2022-10-16T00:29:16;91906.69;;;10.99;86.43
5952;BME280;3001;42.622;23.194;2022-10-16T00:31:43;91906.25;;;10.79;88.92
5952;BME280;3001;42.622;23.194;2022-10-16T00:34:10;91907.44;;;11.00;87.89
5952;BME280;3001;42.622;23.194;2022-10-16T00:36:36;91911.69;;;11.09;87.14
5952;BME280;3001;42.622;23.194;2022-10-16T00:39:04;91911.53;;;11.19;87.28
5952;BME280;3001;42.622;23.194;2022-10-16T00:41:32;91910.81;;;11.41;85.59
5952;BME280;3001;42.622;23.194;2022-10-16T00:44:00;91906.53;;;11.36;85.25
5952;BME280;3001;42.622;23.194;2022-10-16T00:46:29;91905.06;;;11.44;85.11
5952;BME280;3001;42.622;23.194;2022-10-16T00:49:00;91907.38;;;11.45;85.33
5952;BME280;3001;42.622;23.194;2022-10-16T00:51:32;91909.22;;;11.45;84.72
5952;BME280;3001;42.622;23.194;2022-10-16T00:53:59;91887.91;;;11.29;85.78
5952;BME280;3001;42.622;23.194;2022-10-16T00:56:28;91899.28;;;11.47;84.44
5952;BME280;3001;42.622;23.194;2022-10-16T00:58:55;91905.38;;;11.56;84.09
5952;BME280;3001;42.622;23.194;2022-10-16T01:01:22;91909.22;;;11.45;84.03
5952;BME280;3001;42.622;23.194;2022-10-16T01:03:48;91901.78;;;11.25;85.11
5952;BME280;3001;42.622;23.194;2022-10-16T01:06:22;91904.09;;;11.13;85.70
5952;BME280;3001;42.622;23.194;2022-10-16T01:09:01;91904.19;;;11.21;86.19
5952;BME280;3001;42.622;23.194;2022-10-16T01:11:35;91901.13;;;11.33;86.21
5952;BME280;3001;42.622;23.194;2022-10-16T01:14:11;91903.72;;;11.33;85.21
5952;BME280;3001;42.622;23.194;2022-10-16T01:16:44;91910.06;;;11.40;85.26
5952;BME280;3001;42.622;23.194;2022-10-16T01:19:16;91906.91;;;11.30;85.66
5952;BME280;3001;42.622;23.194;2022-10-16T01:21:48;91904.47;;;11.20;86.02
5952;BME280;3001;42.622;23.194;2022-10-16T01:24:27;91906.22;;;11.38;85.94
5952;BME280;3001;42.622;23.194;2022-10-16T01:27:07;91901.78;;;11.25;86.45
5952;BME280;3001;42.622;23.194;2022-10-16T01:29:38;91899.09;;;11.30;85.87
5952;BME280;3001;42.622;23.194;2022-10-16T01:32:15;91888.88;;;11.20;86.57
5952;BME280;3001;42.622;23.194;2022-10-16T01:34:48;91892.25;;;11.20;86.76
5952;BME280;3001;42.622;23.194;2022-10-16T01:37:20;91898.31;;;11.29;86.57
5952;BME280;3001;42.622;23.194;2022-10-16T01:39:50;91902.94;;;11.46;84.92
5952;BME280;3001;42.622;23.194;2022-10-16T01:42:25;91903.91;;;11.36;83.84
5952;BME280;3001;42.622;23.194;2022-10-16T01:44:56;91911.53;;;11.19;85.46
5952;BME280;3001;42.622;23.194;2022-10-16T01:47:26;91901.38;;;11.18;85.69
5952;BME280;3001;42.622;23.194;2022-10-16T01:49:54;91909.75;;;10.88;86.93
5952;BME280;3001;42.622;23.194;2022-10-16T01:52:26;91917.28;;;11.03;87.00
5952;BME280;3001;42.622;23.194;2022-10-16T01:54:55;91907.84;;;10.93;86.96
5952;BME280;3001;42.622;23.194;2022-10-16T01:57:25;91922.44;;;10.89;87.89
5952;BME280;3001;42.622;23.194;2022-10-16T01:59:56;91922.91;;;10.78;88.60
5952;BME280;3001;42.622;23.194;2022-10-16T02:02:27;91918.28;;;10.75;87.48
5952;BME280;3001;42.622;23.194;2022-10-16T02:04:58;91923.88;;;10.82;86.54
5952;BME280;3001;42.622;23.194;2022-10-16T02:07:28;91932.88;;;10.57;88.05
5952;BME280;3001;42.622;23.194;2022-10-16T02:09:55;91928.88;;;10.78;87.68
5952;BME280;3001;42.622;23.194;2022-10-16T02:12:28;91929.28;;;10.85;87.64
5952;BME280;3001;42.622;23.194;2022-10-16T02:14:57;91926.19;;;10.83;87.70
5952;BME280;3001;42.622;23.194;2022-10-16T02:17:24;91929.06;;;10.82;87.53
5952;BME280;3001;42.622;23.194;2022-10-16T02:19:53;91935.19;;;11.04;86.28
5952;BME280;3001;42.622;23.194;2022-10-16T02:22:24;91942.13;;;10.95;85.85
5952;BME280;3001;42.622;23.194;2022-10-16T02:24:57;91944.66;;;10.82;86.19
5952;BME280;3001;42.622;23.194;2022-10-16T02:27:29;91947.56;;;10.80;86.03
5952;BME280;3001;42.622;23.194;2022-10-16T02:30:02;91947.16;;;10.73;86.32
5952;BME280;3001;42.622;23.194;2022-10-16T02:32:34;91948.09;;;10.64;86.67
5952;BME280;3001;42.622;23.194;2022-10-16T02:35:03;91945.06;;;10.57;87.42
5952;BME280;3001;42.622;23.194;2022-10-16T02:37:31;91945.50;;;10.64;87.68
5952;BME280;3001;42.622;23.194;2022-10-16T02:39:58;91941.38;;;10.44;87.93
5952;BME280;3001;42.622;23.194;2022-10-16T02:42:33;91936.66;;;10.46;88.47
5952;BME280;3001;42.622;23.194;2022-10-16T02:45:00;91945.44;;;10.50;87.50
5952;BME280;3001;42.622;23.194;2022-10-16T02:47:27;91950.88;;;10.67;85.52
5952;BME280;3001;42.622;23.194;2022-10-16T02:49:54;91957.00;;;10.58;85.88
5952;BME280;3001;42.622;23.194;2022-10-16T02:52:21;91954.72;;;10.56;85.48
5952;BME280;3001;42.622;23.194;2022-10-16T02:54:47;91954.09;;;10.46;86.13
5952;BME280;3001;42.622;23.194;2022-10-16T02:57:14;91960.38;;;10.90;84.93
5952;BME280;3001;42.622;23.194;2022-10-16T02:59:42;91964.56;;;10.73;84.36
5952;BME280;3001;42.622;23.194;2022-10-16T03:02:09;91960.66;;;10.57;85.13
5952;BME280;3001;42.622;23.194;2022-10-16T03:04:37;91957.31;;;10.56;85.39
5952;BME280;3001;42.622;23.194;2022-10-16T03:07:04;91955.16;;;10.45;85.81
5952;BME280;3001;42.622;23.194;2022-10-16T03:09:31;91957.75;;;10.45;85.79
5952;BME280;3001;42.622;23.194;2022-10-16T03:11:57;91948.69;;;10.42;86.20
5952;BME280;3001;42.622;23.194;2022-10-16T03:14:24;91954.56;;;10.48;85.77
5952;BME280;3001;42.622;23.194;2022-10-16T03:16:52;91959.91;;;10.56;85.71
5952;BME280;3001;42.622;23.194;2022-10-16T03:19:19;91958.03;;;10.75;85.08
5952;BME280;3001;42.622;23.194;2022-10-16T03:21:46;91956.56;;;10.69;84.10
5952;BME280;3001;42.622;23.194;2022-10-16T03:24:13;91953.22;;;10.69;84.47
5952;BME280;3001;42.622;23.194;2022-10-16T03:26:39;91950.88;;;10.67;84.34
5952;BME280;3001;42.622;23.194;2022-10-16T03:29:06;91948.81;;;10.51;84.92
5952;BME280;3001;42.622;23.194;2022-10-16T03:31:33;91957.94;;;10.48;85.01
5952;BME280;3001;42.622;23.194;2022-10-16T03:34:01;91957.47;;;10.28;86.27
5952;BME280;3001;42.622;23.194;2022-10-16T03:36:28;91962.53;;;10.20;87.80
5952;BME280;3001;42.622;23.194;2022-10-16T03:38:54;91965.25;;;10.28;86.93
5952;BME280;3001;42.622;23.194;2022-10-16T03:41:21;91960.16;;;10.23;86.94
5952;BME280;3001;42.622;23.194;2022-10-16T03:43:48;91954.38;;;10.26;87.07
5952;BME280;3001;42.622;23.194;2022-10-16T03:46:15;91948.00;;;10.19;86.52
5952;BME280;3001;42.622;23.194;2022-10-16T03:48:41;91949.47;;;10.43;86.21
5952;BME280;3001;42.622;23.194;2022-10-16T03:51:10;91951.78;;;10.26;86.69
5952;BME280;3001;42.622;23.194;2022-10-16T03:53:36;91950.81;;;10.22;86.48
5952;BME280;3001;42.622;23.194;2022-10-16T03:56:03;91947.31;;;10.32;86.17
5952;BME280;3001;42.622;23.194;2022-10-16T03:58:30;91947.78;;;10.33;85.64
5952;BME280;3001;42.622;23.194;2022-10-16T04:00:57;91949.47;;;10.25;86.12
5952;BME280;3001;42.622;23.194;2022-10-16T04:03:23;91952.22;;;10.15;87.08
5952;BME280;3001;42.622;23.194;2022-10-16T04:05:50;91958.09;;;10.02;87.75
5952;BME280;3001;42.622;23.194;2022-10-16T04:08:19;91951.50;;;10.27;85.84
5952;BME280;3001;42.622;23.194;2022-10-16T04:10:45;91954.31;;;10.13;86.68
5952;BME280;3001;42.622;23.194;2022-10-16T04:13:12;91945.19;;;10.15;86.98
5952;BME280;3001;42.622;23.194;2022-10-16T04:15:39;91954.88;;;10.10;86.54
5952;BME280;3001;42.622;23.194;2022-10-16T04:18:06;91950.81;;;10.04;87.05
5952;BME280;3001;42.622;23.194;2022-10-16T04:20:33;91949.69;;;10.28;86.47
5952;BME280;3001;42.622;23.194;2022-10-16T04:23:00;91961.97;;;9.99;88.48
5952;BME280;3001;42.622;23.194;2022-10-16T04:25:30;91954.69;;;9.83;88.30
5952;BME280;3001;42.622;23.194;2022-10-16T04:27:56;91952.06;;;10.06;87.92
5952;BME280;3001;42.622;23.194;2022-10-16T04:30:23;91950.22;;;10.07;88.30
5952;BME280;3001;42.622;23.194;2022-10-16T04:32:50;91944.50;;;10.28;87.87
5952;BME280;3001;42.622;23.194;2022-10-16T04:35:17;91954.44;;;10.03;87.51
5952;BME280;3001;42.622;23.194;2022-10-16T04:37:44;91945.03;;;10.07;87.95
5952;BME280;3001;42.622;23.194;2022-10-16T04:40:12;91953.06;;;10.10;88.43
5952;BME280;3001;42.622;23.194;2022-10-16T04:42:40;91957.19;;;10.11;88.11
5952;BME280;3001;42.622;23.194;2022-10-16T04:45:07;91953.53;;;10.12;87.56
5952;BME280;3001;42.622;23.194;2022-10-16T04:47:34;91957.19;;;10.11;87.43
5952;BME280;3001;42.622;23.194;2022-10-16T04:50:01;91955.53;;;9.97;87.93
5952;BME280;3001;42.622;23.194;2022-10-16T04:52:28;91969.09;;;9.94;88.30
5952;BME280;3001;42.622;23.194;2022-10-16T04:54:56;91965.84;;;9.83;89.64
5952;BME280;3001;42.622;23.194;2022-10-16T04:57:26;91961.88;;;9.91;89.59
5952;BME280;3001;42.622;23.194;2022-10-16T04:59:54;91977.44;;;9.91;89.42
5952;BME280;3001;42.622;23.194;2022-10-16T05:02:21;91983.06;;;10.16;88.63
5952;BME280;3001;42.622;23.194;2022-10-16T05:04:48;91980.22;;;10.18;88.71
5952;BME280;3001;42.622;23.194;2022-10-16T05:07:15;91987.16;;;10.22;88.18
5952;BME280;3001;42.622;23.194;2022-10-16T05:09:41;91984.28;;;10.00;89.54
5952;BME280;3001;42.622;23.194;2022-10-16T05:12:08;91981.31;;;10.30;87.89
5952;BME280;3001;42.622;23.194;2022-10-16T05:14:35;91989.38;;;10.10;88.55
5952;BME280;3001;42.622;23.194;2022-10-16T05:17:03;91983.28;;;10.01;89.16
5952;BME280;3001;42.622;23.194;2022-10-16T05:19:30;91988.97;;;10.03;89.16
5952;BME280;3001;42.622;23.194;2022-10-16T05:21:57;91984.28;;;10.00;88.92
5952;BME280;3001;42.622;23.194;2022-10-16T05:24:24;91981.06;;;9.90;88.80
5952;BME280;3001;42.622;23.194;2022-10-16T05:26:51;91986.97;;;9.95;88.96
5952;BME280;3001;42.622;23.194;2022-10-16T05:29:18;91983.94;;;9.88;88.93
5952;BME280;3001;42.622;23.194;2022-10-16T05:31:45;91987.34;;;10.07;88.35
5952;BME280;3001;42.622;23.194;2022-10-16T05:34:13;91999.06;;;10.05;88.90
5952;BME280;3001;42.622;23.194;2022-10-16T05:36:40;91996.84;;;9.93;88.56
5952;BME280;3001;42.622;23.194;2022-10-16T05:39:06;92001.13;;;9.84;90.14
5952;BME280;3001;42.622;23.194;2022-10-16T05:41:33;91994.53;;;9.92;90.04
5952;BME280;3001;42.622;23.194;2022-10-16T05:44:00;92008.19;;;9.79;90.49
5952;BME280;3001;42.622;23.194;2022-10-16T05:46:26;91999.13;;;9.76;91.21
5952;BME280;3001;42.622;23.194;2022-10-16T05:48:53;91998.03;;;9.82;91.19
5952;BME280;3001;42.622;23.194;2022-10-16T05:51:21;92005.84;;;9.77;91.50
5952;BME280;3001;42.622;23.194;2022-10-16T05:53:48;92002.91;;;9.65;92.51
5952;BME280;3001;42.622;23.194;2022-10-16T05:56:15;92010.22;;;9.82;91.81
5952;BME280;3001;42.622;23.194;2022-10-16T05:58:42;92022.16;;;9.83;91.56
5952;BME280;3001;42.622;23.194;2022-10-16T06:01:11;92023.63;;;9.89;91.63
5952;BME280;3001;42.622;23.194;2022-10-16T06:03:39;92031.03;;;9.77;92.13
5952;BME280;3001;42.622;23.194;2022-10-16T06:06:09;92021.72;;;9.76;91.82
5952;BME280;3001;42.622;23.194;2022-10-16T06:08:38;92025.13;;;9.95;91.80
5952;BME280;3001;42.622;23.194;2022-10-16T06:11:06;92019.69;;;9.73;92.26
5952;BME280;3001;42.622;23.194;2022-10-16T06:13:33;92030.00;;;9.78;92.81
5952;BME280;3001;42.622;23.194;2022-10-16T06:16:01;92040.97;;;9.93;92.41
5952;BME280;3001;42.622;23.194;2022-10-16T06:18:28;92031.25;;;9.80;92.99
5952;BME280;3001;42.622;23.194;2022-10-16T06:20:55;92034.53;;;9.91;93.09
5952;BME280;3001;42.622;23.194;2022-10-16T06:23:22;92034.94;;;9.98;93.05
5952;BME280;3001;42.622;23.194;2022-10-16T06:25:51;92039.41;;;9.92;93.98
5952;BME280;3001;42.622;23.194;2022-10-16T06:28:18;92043.63;;;10.12;93.09
5952;BME280;3001;42.622;23.194;2022-10-16T06:30:44;92045.94;;;10.13;93.10
5952;BME280;3001;42.622;23.194;2022-10-16T06:33:11;92044.25;;;10.04;93.45
5952;BME280;3001;42.622;23.194;2022-10-16T06:35:38;92044.16;;;10.09;93.46
5952;BME280;3001;42.622;23.194;2022-10-16T06:38:04;92052.03;;;10.04;94.31
5952;BME280;3001;42.622;23.194;2022-10-16T06:40:31;92048.69;;;9.98;94.54
5952;BME280;3001;42.622;23.194;2022-10-16T06:42:59;92053.78;;;10.08;94.50
5952;BME280;3001;42.622;23.194;2022-10-16T06:45:26;92056.53;;;9.93;95.34
5952;BME280;3001;42.622;23.194;2022-10-16T06:47:53;92055.97;;;10.01;95.23
5952;BME280;3001;42.622;23.194;2022-10-16T06:50:19;92062.78;;;10.16;95.10
5952;BME280;3001;42.622;23.194;2022-10-16T06:52:46;92054.22;;;10.15;95.27
5952;BME280;3001;42.622;23.194;2022-10-16T06:55:13;92064.41;;;10.30;94.64
5952;BME280;3001;42.622;23.194;2022-10-16T06:57:40;92066.78;;;10.27;94.63
5952;BME280;3001;42.622;23.194;2022-10-16T07:00:09;92064.44;;;10.48;93.89
5952;BME280;3001;42.622;23.194;2022-10-16T07:02:36;92067.50;;;10.50;93.81
5952;BME280;3001;42.622;23.194;2022-10-16T07:05:03;92068.78;;;10.90;93.27
5952;BME280;3001;42.622;23.194;2022-10-16T07:07:30;92075.31;;;10.69;93.74
5952;BME280;3001;42.622;23.194;2022-10-16T07:09:56;92076.03;;;10.74;92.85
5952;BME280;3001;42.622;23.194;2022-10-16T07:12:23;92073.56;;;10.46;94.50
5952;BME280;3001;42.622;23.194;2022-10-16T07:14:50;92072.03;;;10.45;95.15
5952;BME280;3001;42.622;23.194;2022-10-16T07:17:19;92083.41;;;10.49;95.86
5952;BME280;3001;42.622;23.194;2022-10-16T07:19:45;92092.38;;;10.56;95.63
5952;BME280;3001;42.622;23.194;2022-10-16T07:22:12;92089.91;;;10.83;95.38
5952;BME280;3001;42.622;23.194;2022-10-16T07:24:39;92088.31;;;10.69;96.17
5952;BME280;3001;42.622;23.194;2022-10-16T07:27:05;92091.06;;;10.77;96.13
5952;BME280;3001;42.622;23.194;2022-10-16T07:29:32;92084.16;;;11.05;95.73
5952;BME280;3001;42.622;23.194;2022-10-16T07:31:59;92079.84;;;11.14;95.83
5952;BME280;3001;42.622;23.194;2022-10-16T07:34:27;92087.00;;;11.22;95.85
5952;BME280;3001;42.622;23.194;2022-10-16T07:36:54;92095.38;;;11.51;94.98
5952;BME280;3001;42.622;23.194;2022-10-16T07:39:20;92092.63;;;11.61;94.59
5952;BME280;3001;42.622;23.194;2022-10-16T07:41:47;92096.09;;;11.38;96.19
5952;BME280;3001;42.622;23.194;2022-10-16T07:44:15;92091.00;;;11.65;96.05
5952;BME280;3001;42.622;23.194;2022-10-16T07:46:42;92098.72;;;11.70;96.43
5952;BME280;3001;42.622;23.194;2022-10-16T07:49:09;92099.28;;;11.67;96.53
5952;BME280;3001;42.622;23.194;2022-10-16T07:51:37;92099.78;;;11.69;96.66
5952;BME280;3001;42.622;23.194;2022-10-16T07:54:04;92108.75;;;11.76;96.33
5952;BME280;3001;42.622;23.194;2022-10-16T07:56:31;92108.34;;;11.83;96.69
5952;BME280;3001;42.622;23.194;2022-10-16T07:58:58;92117.66;;;11.89;97.78
5952;BME280;3001;42.622;23.194;2022-10-16T08:01:25;92109.25;;;12.05;97.16
5952;BME280;3001;42.622;23.194;2022-10-16T08:03:52;92111.22;;;12.26;95.68
5952;BME280;3001;42.622;23.194;2022-10-16T08:06:20;92113.22;;;12.29;95.87
5952;BME280;3001;42.622;23.194;2022-10-16T08:08:48;92112.63;;;12.46;95.87
5952;BME280;3001;42.622;23.194;2022-10-16T08:11:16;92109.63;;;12.52;95.59
5952;BME280;3001;42.622;23.194;2022-10-16T08:13:43;92118.19;;;12.80;95.03
5952;BME280;3001;42.622;23.194;2022-10-16T08:16:10;92114.53;;;12.54;96.76
5952;BME280;3001;42.622;23.194;2022-10-16T08:18:38;92109.91;;;12.64;96.52
5952;BME280;3001;42.622;23.194;2022-10-16T08:21:05;92118.28;;;12.75;96.41
5952;BME280;3001;42.622;23.194;2022-10-16T08:23:33;92114.28;;;12.91;94.80
5952;BME280;3001;42.622;23.194;2022-10-16T08:26:04;92118.16;;;13.07;93.88
5952;BME280;3001;42.622;23.194;2022-10-16T08:28:31;92114.97;;;13.32;93.10
5952;BME280;3001;42.622;23.194;2022-10-16T08:31:05;92123.31;;;13.64;92.95
5952;BME280;3001;42.622;23.194;2022-10-16T08:33:32;92128.03;;;13.84;91.96
5952;BME280;3001;42.622;23.194;2022-10-16T08:36:00;92121.03;;;13.93;91.52
5952;BME280;3001;42.622;23.194;2022-10-16T08:38:27;92123.75;;;14.10;91.17
5952;BME280;3001;42.622;23.194;2022-10-16T08:40:57;92128.19;;;14.09;91.03
5952;BME280;3001;42.622;23.194;2022-10-16T08:43:49;92124.63;;;14.36;89.13
5952;BME280;3001;42.622;23.194;2022-10-16T08:46:37;92122.00;;;14.27;89.61
5952;BME280;3001;42.622;23.194;2022-10-16T08:49:11;92122.13;;;14.61;88.25
5952;BME280;3001;42.622;23.194;2022-10-16T08:51:39;92134.00;;;14.84;87.83
5952;BME280;3001;42.622;23.194;2022-10-16T08:54:15;92133.09;;;15.06;87.43
5952;BME280;3001;42.622;23.194;2022-10-16T08:56:44;92135.25;;;15.04;87.60
5952;BME280;3001;42.622;23.194;2022-10-16T08:59:14;92135.59;;;15.70;85.00
5952;BME280;3001;42.622;23.194;2022-10-16T09:01:45;92142.84;;;15.56;84.79
5952;BME280;3001;42.622;23.194;2022-10-16T09:04:44;92146.38;;;15.68;85.17
5952;BME280;3001;42.622;23.194;2022-10-16T09:07:16;92145.41;;;16.07;83.86
5952;BME280;3001;42.622;23.194;2022-10-16T09:09:54;92148.19;;;16.02;82.75
5952;BME280;3001;42.622;23.194;2022-10-16T09:12:29;92144.34;;;16.08;82.67
5952;BME280;3001;42.622;23.194;2022-10-16T09:15:07;92143.06;;;16.22;81.80
5952;BME280;3001;42.622;23.194;2022-10-16T09:17:49;92140.88;;;16.24;76.92
5952;BME280;3001;42.622;23.194;2022-10-16T09:20:34;92134.66;;;16.54;77.80
5952;BME280;3001;42.622;23.194;2022-10-16T09:23:14;92136.69;;;16.78;77.65
5952;BME280;3001;42.622;23.194;2022-10-16T09:25:47;92128.25;;;16.93;76.92
5952;BME280;3001;42.622;23.194;2022-10-16T09:28:15;92139.66;;;16.97;76.90
5952;BME280;3001;42.622;23.194;2022-10-16T09:30:47;92142.63;;;17.16;73.83
5952;BME280;3001;42.622;23.194;2022-10-16T09:33:16;92137.78;;;17.06;74.15
5952;BME280;3001;42.622;23.194;2022-10-16T09:35:45;92122.41;;;17.16;71.21
5952;BME280;3001;42.622;23.194;2022-10-16T09:38:25;92149.34;;;17.54;68.34
5952;BME280;3001;42.622;23.194;2022-10-16T09:40:55;92149.34;;;17.54;69.62
5952;BME280;3001;42.622;23.194;2022-10-16T09:43:25;92149.09;;;17.47;68.69
5952;BME280;3001;42.622;23.194;2022-10-16T09:46:01;92149.34;;;17.74;69.04
5952;BME280;3001;42.622;23.194;2022-10-16T09:48:36;92140.56;;;18.03;68.26
5952;BME280;3001;42.622;23.194;2022-10-16T09:51:06;92136.69;;;18.21;69.65
5952;BME280;3001;42.622;23.194;2022-10-16T09:53:40;92137.00;;;18.64;66.27
5952;BME280;3001;42.622;23.194;2022-10-16T09:56:10;92133.78;;;19.06;65.97
5952;BME280;3001;42.622;23.194;2022-10-16T09:58:42;92134.91;;;18.93;65.78
5952;BME280;3001;42.622;23.194;2022-10-16T10:01:13;92133.94;;;18.86;62.42
5952;BME280;3001;42.622;23.194;2022-10-16T10:03:42;92135.88;;;19.13;62.83
5952;BME280;3001;42.622;23.194;2022-10-16T10:06:22;92136.88;;;19.20;60.91
5952;BME280;3001;42.622;23.194;2022-10-16T10:08:55;92131.03;;;19.38;58.96
5952;BME280;3001;42.622;23.194;2022-10-16T10:11:42;92138.00;;;19.58;57.34
5952;BME280;3001;42.622;23.194;2022-10-16T10:14:17;92136.69;;;19.64;58.97
5952;BME280;3001;42.622;23.194;2022-10-16T10:16:45;92151.53;;;19.57;57.45
5952;BME280;3001;42.622;23.194;2022-10-16T10:19:14;92138.44;;;19.60;57.31
5952;BME280;3001;42.622;23.194;2022-10-16T10:21:41;92137.06;;;19.78;57.15
5952;BME280;3001;42.622;23.194;2022-10-16T10:24:10;92142.72;;;20.04;55.51
5952;BME280;3001;42.622;23.194;2022-10-16T10:26:38;92133.03;;;19.96;55.14
5952;BME280;3001;42.622;23.194;2022-10-16T10:29:17;92136.41;;;20.09;54.88
5952;BME280;3001;42.622;23.194;2022-10-16T10:31:56;92119.41;;;20.06;55.57
5952;BME280;3001;42.622;23.194;2022-10-16T10:34:39;92127.91;;;19.88;55.88
5952;BME280;3001;42.622;23.194;2022-10-16T10:37:20;92124.28;;;19.92;55.13
5952;BME280;3001;42.622;23.194;2022-10-16T10:39:54;92125.13;;;20.08;54.79
5952;BME280;3001;42.622;23.194;2022-10-16T10:42:28;92115.41;;;20.12;55.20
5952;BME280;3001;42.622;23.194;2022-10-16T10:45:18;92122.41;;;20.20;54.47
5952;BME280;3001;42.622;23.194;2022-10-16T10:47:59;92104.72;;;20.36;53.91
5952;BME280;3001;42.622;23.194;2022-10-16T10:50:35;92117.31;;;20.27;56.03
5952;BME280;3001;42.622;23.194;2022-10-16T10:53:11;92110.31;;;20.19;55.46
5952;BME280;3001;42.622;23.194;2022-10-16T10:55:45;92109.72;;;20.26;54.96
5952;BME280;3001;42.622;23.194;2022-10-16T10:58:26;92106.66;;;20.24;54.89
5952;BME280;3001;42.622;23.194;2022-10-16T11:01:01;92106.19;;;20.34;53.88
5952;BME280;3001;42.622;23.194;2022-10-16T11:03:46;92105.97;;;20.27;53.12
5952;BME280;3001;42.622;23.194;2022-10-16T11:06:20;92100.81;;;20.30;53.56
5952;BME280;3001;42.622;23.194;2022-10-16T11:08:52;92099.69;;;20.16;53.03
5952;BME280;3001;42.622;23.194;2022-10-16T11:11:24;92095.38;;;20.54;52.22
5952;BME280;3001;42.622;23.194;2022-10-16T11:13:55;92096.72;;;20.64;51.81
5952;BME280;3001;42.622;23.194;2022-10-16T11:16:28;92100.31;;;20.71;52.75
5952;BME280;3001;42.622;23.194;2022-10-16T11:18:59;92102.53;;;20.85;51.78
5952;BME280;3001;42.622;23.194;2022-10-16T11:21:34;92100.81;;;20.92;51.51
5952;BME280;3001;42.622;23.194;2022-10-16T11:24:13;92100.22;;;20.99;50.91
5952;BME280;3001;42.622;23.194;2022-10-16T11:26:43;92092.38;;;21.02;50.78
5952;BME280;3001;42.622;23.194;2022-10-16T11:29:16;92090.91;;;21.05;48.61
5952;BME280;3001;42.622;23.194;2022-10-16T11:31:49;92103.09;;;21.09;48.72
5952;BME280;3001;42.622;23.194;2022-10-16T11:34:22;92103.63;;;21.14;48.17
5952;BME280;3001;42.622;23.194;2022-10-16T11:36:56;92097.97;;;21.16;48.18
5952;BME280;3001;42.622;23.194;2022-10-16T11:39:27;92100.69;;;21.19;48.31
5952;BME280;3001;42.622;23.194;2022-10-16T11:41:57;92109.13;;;21.09;46.57
5952;BME280;3001;42.622;23.194;2022-10-16T11:44:35;92101.63;;;21.27;48.02
5952;BME280;3001;42.622;23.194;2022-10-16T11:47:12;92094.88;;;21.29;47.32
5952;BME280;3001;42.622;23.194;2022-10-16T11:49:44;92102.72;;;21.26;47.00
5952;BME280;3001;42.622;23.194;2022-10-16T11:52:18;92101.25;;;21.28;47.12
5952;BME280;3001;42.622;23.194;2022-10-16T11:54:49;92102.06;;;21.48;47.56
5952;BME280;3001;42.622;23.194;2022-10-16T11:57:21;92109.34;;;21.54;46.51
5952;BME280;3001;42.622;23.194;2022-10-16T11:59:54;92114.03;;;21.76;47.71
5952;BME280;3001;42.622;23.194;2022-10-16T12:02:31;92110.94;;;21.74;46.11
5952;BME280;3001;42.622;23.194;2022-10-16T12:05:10;92108.50;;;21.85;45.30
5952;BME280;3001;42.622;23.194;2022-10-16T12:07:46;92112.41;;;21.72;45.76
5952;BME280;3001;42.622;23.194;2022-10-16T12:10:22;92102.38;;;21.62;45.11
5952;BME280;3001;42.622;23.194;2022-10-16T12:12:50;92104.06;;;21.89;44.28
5952;BME280;3001;42.622;23.194;2022-10-16T12:15:23;92106.09;;;21.61;44.56
5952;BME280;3001;42.622;23.194;2022-10-16T12:17:51;92104.81;;;21.89;44.39
5952;BME280;3001;42.622;23.194;2022-10-16T12:20:25;92101.31;;;22.04;43.61
5952;BME280;3001;42.622;23.194;2022-10-16T12:22:54;92108.28;;;21.93;41.79
5952;BME280;3001;42.622;23.194;2022-10-16T12:25:25;92111.22;;;22.07;43.14
5952;BME280;3001;42.622;23.194;2022-10-16T12:28:01;92110.72;;;22.02;43.50
5952;BME280;3001;42.622;23.194;2022-10-16T12:30:31;92106.13;;;21.99;43.71
5952;BME280;3001;42.622;23.194;2022-10-16T12:33:00;92110.09;;;22.08;41.98
5952;BME280;3001;42.622;23.194;2022-10-16T12:35:32;92102.03;;;22.01;42.04
5952;BME280;3001;42.622;23.194;2022-10-16T12:38:16;92104.72;;;22.05;43.78
5952;BME280;3001;42.622;23.194;2022-10-16T12:40:44;92109.78;;;22.32;40.65
5952;BME280;3001;42.622;23.194;2022-10-16T12:43:27;92107.53;;;21.93;43.51
5952;BME280;3001;42.622;23.194;2022-10-16T12:46:05;92108.28;;;21.93;43.87
5952;BME280;3001;42.622;23.194;2022-10-16T12:48:46;92108.66;;;21.92;43.06
5952;BME280;3001;42.622;23.194;2022-10-16T12:51:23;92109.81;;;21.94;43.43
5952;BME280;3001;42.622;23.194;2022-10-16T12:53:58;92121.09;;;22.10;41.98
5952;BME280;3001;42.622;23.194;2022-10-16T12:56:34;92122.09;;;21.83;42.59
5952;BME280;3001;42.622;23.194;2022-10-16T12:59:12;92119.66;;;21.94;43.37
5952;BME280;3001;42.622;23.194;2022-10-16T13:01:54;92125.50;;;21.84;42.62
5952;BME280;3001;42.622;23.194;2022-10-16T13:04:36;92127.44;;;21.68;42.80
5952;BME280;3001;42.622;23.194;2022-10-16T13:07:20;92118.66;;;21.83;42.60
5952;BME280;3001;42.622;23.194;2022-10-16T13:10:01;92127.09;;;21.88;41.87
5952;BME280;3001;42.622;23.194;2022-10-16T13:13:01;92121.75;;;21.66;44.52
5952;BME280;3001;42.622;23.194;2022-10-16T13:15:43;92121.38;;;21.67;43.79
5952;BME280;3001;42.622;23.194;2022-10-16T13:18:16;92122.84;;;21.84;44.62
5952;BME280;3001;42.622;23.194;2022-10-16T13:20:59;92118.88;;;21.74;43.01
5952;BME280;3001;42.622;23.194;2022-10-16T13:23:35;92109.34;;;21.70;43.28
5952;BME280;3001;42.622;23.194;2022-10-16T13:26:13;92115.50;;;21.58;41.70
5952;BME280;3001;42.622;23.194;2022-10-16T13:28:43;92106.78;;;21.58;44.53
5952;BME280;3001;42.622;23.194;2022-10-16T13:31:15;92115.16;;;21.60;44.34